createdAt,value
2018-09-24T00:01:47.711Z,10.80
2018-09-24T00:04:17.156Z,10.80
2018-09-24T00:06:45.524Z,10.90
2018-09-24T00:09:13.936Z,10.90
2018-09-24T00:11:42.346Z,10.90
2018-09-24T00:14:11.498Z,10.90
2018-09-24T00:16:39.980Z,10.90
2018-09-24T00:19:08.942Z,11.00
2018-09-24T00:21:37.321Z,10.90
2018-09-24T00:24:05.948Z,10.90
2018-09-24T00:26:34.284Z,11.00
2018-09-24T00:29:02.667Z,11.00
2018-09-24T00:31:31.782Z,10.90
2018-09-24T00:34:00.451Z,10.90
2018-09-24T00:36:28.914Z,10.90
2018-09-24T00:38:57.291Z,10.90
2018-09-24T00:41:26.514Z,10.90
2018-09-24T00:43:55.094Z,10.80
2018-09-24T00:46:24.138Z,10.80
2018-09-24T00:48:52.669Z,10.80
2018-09-24T00:51:21.063Z,10.80
2018-09-24T00:53:50.672Z,10.80
2018-09-24T00:56:19.596Z,10.70
2018-09-24T00:58:48.517Z,10.70
2018-09-24T01:01:16.991Z,10.70
2018-09-24T01:03:45.563Z,10.70
2018-09-24T01:06:14.616Z,10.70
2018-09-24T01:08:42.947Z,10.70
2018-09-24T01:11:11.380Z,10.70
2018-09-24T01:13:40.567Z,10.70
2018-09-24T01:16:09.398Z,10.60
2018-09-24T01:18:39.028Z,10.60
2018-09-24T01:21:07.467Z,10.70
2018-09-24T01:23:35.983Z,10.70
2018-09-24T01:26:04.676Z,10.70
2018-09-24T01:28:32.991Z,10.70
2018-09-24T01:31:02.407Z,10.70
2018-09-24T01:33:30.956Z,10.70
2018-09-24T01:35:59.324Z,10.70
2018-09-24T01:38:27.726Z,10.70
2018-09-24T01:40:56.121Z,10.80
2018-09-24T01:43:26.139Z,10.80
2018-09-24T01:45:55.623Z,10.80
2018-09-24T01:48:24.537Z,10.70
2018-09-24T01:50:52.890Z,10.70
2018-09-24T01:53:21.703Z,10.70
2018-09-24T01:55:51.209Z,10.70
2018-09-24T01:58:19.868Z,10.70
2018-09-24T02:00:48.291Z,10.70
2018-09-24T02:03:17.758Z,10.70
2018-09-24T02:05:46.151Z,10.70
2018-09-24T02:08:14.642Z,10.70
2018-09-24T02:10:43.060Z,10.70
2018-09-24T02:13:11.688Z,10.70
2018-09-24T02:15:40.134Z,10.70
2018-09-24T02:18:08.562Z,10.70
2018-09-24T02:20:44.604Z,10.70
2018-09-24T02:23:13.829Z,10.70
2018-09-24T02:25:42.585Z,10.70
2018-09-24T02:28:10.944Z,10.70
2018-09-24T02:30:39.550Z,10.60
2018-09-24T02:33:10.720Z,10.60
2018-09-24T02:35:43.672Z,10.60
2018-09-24T02:38:12.351Z,10.60
2018-09-24T02:40:41.098Z,10.60
2018-09-24T02:43:09.661Z,10.60
2018-09-24T02:45:38.106Z,10.60
2018-09-24T02:48:10.529Z,10.60
2018-09-24T02:50:40.331Z,10.60
2018-09-24T02:53:09.763Z,10.60
2018-09-24T02:55:38.891Z,10.60
2018-09-24T02:58:09.386Z,10.70
2018-09-24T03:00:37.762Z,10.70
2018-09-24T03:03:11.259Z,10.60
2018-09-24T03:05:40.174Z,10.60
2018-09-24T03:08:12.016Z,10.60
2018-09-24T03:10:40.974Z,10.60
2018-09-24T03:13:09.660Z,10.60
2018-09-24T03:15:39.661Z,10.50
2018-09-24T03:18:09.216Z,10.60
2018-09-24T03:20:43.554Z,10.50
2018-09-24T03:23:12.552Z,10.50
2018-09-24T03:25:41.312Z,10.50
2018-09-24T03:28:09.678Z,10.50
2018-09-24T03:30:40.886Z,10.50
2018-09-24T03:33:09.325Z,10.40
2018-09-24T03:35:37.684Z,10.50
2018-09-24T03:38:06.807Z,10.50
2018-09-24T03:40:35.255Z,10.50
2018-09-24T03:43:04.004Z,10.50
2018-09-24T03:45:32.433Z,10.50
2018-09-24T03:48:01.373Z,10.50
2018-09-24T03:50:30.628Z,10.50
2018-09-24T03:53:00.606Z,10.50
2018-09-24T03:55:29.153Z,10.50
2018-09-24T03:57:59.122Z,10.50
2018-09-24T04:03:27.172Z,10.50
2018-09-24T04:06:01.668Z,10.60
2018-09-24T04:08:35.568Z,10.60
2018-09-24T04:11:09.441Z,10.60
2018-09-24T04:13:43.817Z,10.50
2018-09-24T04:16:18.057Z,10.50
2018-09-24T04:18:51.947Z,10.50
2018-09-24T04:21:26.290Z,10.50
2018-09-24T04:24:00.447Z,10.40
2018-09-24T04:26:34.675Z,10.40
2018-09-24T04:29:08.349Z,10.40
2018-09-24T04:31:43.069Z,10.50
2018-09-24T04:34:16.800Z,10.40
2018-09-24T04:36:50.811Z,10.40
2018-09-24T04:39:25.515Z,10.40
2018-09-24T04:41:59.404Z,10.60
2018-09-24T04:44:33.092Z,10.60
2018-09-24T04:47:06.794Z,10.50
2018-09-24T04:49:40.485Z,10.40
2018-09-24T04:52:14.476Z,10.30
2018-09-24T04:54:48.402Z,10.30
2018-09-24T04:57:29.041Z,10.30
2018-09-24T05:00:02.726Z,10.30
2018-09-24T05:02:36.658Z,10.30
2018-09-24T05:05:10.300Z,10.30
2018-09-24T05:07:44.056Z,10.30
2018-09-24T05:10:17.829Z,10.20
2018-09-24T05:12:51.674Z,10.20
2018-09-24T05:15:25.403Z,10.20
2018-09-24T05:17:59.640Z,10.30
2018-09-24T05:20:33.660Z,10.30
2018-09-24T05:23:07.504Z,10.40
2018-09-24T05:25:42.039Z,10.50
2018-09-24T05:28:15.708Z,10.50
2018-09-24T05:30:49.398Z,10.40
2018-09-24T05:33:23.220Z,10.40
2018-09-24T05:35:57.050Z,10.40
2018-09-24T05:38:30.873Z,10.40
2018-09-24T05:41:04.557Z,10.40
2018-09-24T05:43:39.135Z,10.40
2018-09-24T05:46:13.702Z,10.40
2018-09-24T05:48:47.336Z,10.30
2018-09-24T05:51:21.116Z,10.30
2018-09-24T05:53:55.951Z,10.30
2018-09-24T05:56:29.787Z,10.40
2018-09-24T05:59:03.873Z,10.40
2018-09-24T06:01:37.554Z,10.40
2018-09-24T06:04:11.742Z,10.40
2018-09-24T06:06:46.121Z,10.40
2018-09-24T06:09:22.716Z,10.50
2018-09-24T06:11:56.588Z,10.60
2018-09-24T06:14:30.334Z,10.60
2018-09-24T06:17:04.203Z,10.70
2018-09-24T06:19:38.143Z,10.70
2018-09-24T06:22:12.555Z,10.70
2018-09-24T06:24:46.328Z,10.60
2018-09-24T06:27:20.076Z,10.60
2018-09-24T06:29:53.975Z,10.60
2018-09-24T06:32:27.608Z,10.70
2018-09-24T06:35:01.446Z,10.70
2018-09-24T06:37:35.078Z,10.80
2018-09-24T06:40:08.920Z,10.80
2018-09-24T06:42:43.816Z,10.90
2018-09-24T06:45:17.552Z,10.90
2018-09-24T06:47:51.171Z,10.90
2018-09-24T06:50:24.861Z,11.00
2018-09-24T06:52:58.695Z,11.00
2018-09-24T06:55:32.347Z,11.00
2018-09-24T06:58:07.046Z,11.10
2018-09-24T07:00:40.668Z,11.10
2018-09-24T07:03:16.161Z,11.10
2018-09-24T07:05:50.011Z,11.10
2018-09-24T07:08:24.779Z,11.10
2018-09-24T07:10:58.556Z,11.20
2018-09-24T07:13:33.444Z,11.20
2018-09-24T07:16:07.358Z,11.30
2018-09-24T07:18:42.142Z,11.30
2018-09-24T07:21:15.974Z,11.20
2018-09-24T07:23:49.665Z,11.20
2018-09-24T07:26:23.923Z,11.20
2018-09-24T07:28:57.754Z,11.30
2018-09-24T07:31:31.411Z,11.30
2018-09-24T07:34:06.165Z,11.30
2018-09-24T07:36:39.705Z,11.40
2018-09-24T07:39:15.675Z,11.40
2018-09-24T07:41:49.773Z,11.50
2018-09-24T07:44:23.480Z,11.50
2018-09-24T07:46:58.234Z,11.50
2018-09-24T07:49:32.410Z,11.60
2018-09-24T07:52:06.154Z,11.90
2018-09-24T07:54:39.910Z,12.10
2018-09-24T07:57:14.457Z,12.20
2018-09-24T07:59:48.142Z,12.20
2018-09-24T08:02:22.045Z,12.20
2018-09-24T08:04:56.011Z,12.00
2018-09-24T08:07:31.033Z,12.00
2018-09-24T08:10:05.784Z,12.00
2018-09-24T08:12:39.778Z,11.90
2018-09-24T08:15:13.508Z,11.90
2018-09-24T08:17:47.634Z,11.90
2018-09-24T08:20:21.273Z,12.10
2018-09-24T08:22:55.877Z,12.50
2018-09-24T08:25:29.560Z,12.80
2018-09-24T08:28:03.353Z,12.60
2018-09-24T08:30:37.194Z,12.50
2018-09-24T08:33:11.777Z,12.30
2018-09-24T08:35:45.940Z,12.10
2018-09-24T08:38:19.665Z,12.00
2018-09-24T08:40:53.984Z,12.00
2018-09-24T08:43:28.272Z,12.00
2018-09-24T08:46:02.778Z,12.10
2018-09-24T08:48:36.869Z,12.20
2018-09-24T08:51:11.402Z,12.50
2018-09-24T08:53:45.824Z,12.50
2018-09-24T08:56:20.506Z,12.50
2018-09-24T08:58:54.695Z,12.50
2018-09-24T09:01:28.519Z,12.50
2018-09-24T09:04:02.591Z,12.50
2018-09-24T09:06:36.187Z,12.40
2018-09-24T09:09:15.180Z,12.30
2018-09-24T09:11:49.817Z,12.40
2018-09-24T09:14:23.540Z,12.50
2018-09-24T09:16:57.433Z,12.50
2018-09-24T09:19:31.470Z,12.50
2018-09-24T09:22:05.158Z,12.60
2018-09-24T09:24:38.975Z,12.60
2018-09-24T09:27:12.763Z,12.70
2018-09-24T09:29:46.489Z,12.80
2018-09-24T09:32:21.186Z,12.90
2018-09-24T09:34:55.211Z,13.00
2018-09-24T09:37:29.446Z,13.10
2018-09-24T09:40:03.819Z,13.10
2018-09-24T09:42:38.869Z,13.20
2018-09-24T09:45:12.549Z,13.10
2018-09-24T09:47:46.470Z,13.10
2018-09-24T09:50:20.385Z,13.20
2018-09-24T09:52:54.652Z,13.20
2018-09-24T09:55:28.316Z,13.40
2018-09-24T09:58:03.324Z,13.40
2018-09-24T10:00:37.359Z,13.40
2018-09-24T10:03:11.400Z,13.40
2018-09-24T10:05:45.133Z,13.80
2018-09-24T10:08:18.882Z,13.60
2018-09-24T10:10:52.667Z,13.40
2018-09-24T10:13:27.207Z,13.40
2018-09-24T10:16:00.895Z,13.60
2018-09-24T10:18:34.765Z,13.70
2018-09-24T10:21:08.602Z,13.90
2018-09-24T10:23:42.898Z,13.80
2018-09-24T10:26:17.254Z,13.70
2018-09-24T10:28:51.477Z,13.80
2018-09-24T10:31:25.263Z,13.80
2018-09-24T10:34:00.157Z,13.80
2018-09-24T10:36:34.418Z,13.70
2018-09-24T10:39:08.091Z,13.60
2018-09-24T10:41:42.511Z,13.70
2018-09-24T10:44:16.563Z,13.70
2018-09-24T10:46:50.398Z,13.70
2018-09-24T10:49:24.474Z,13.80
2018-09-24T10:51:59.849Z,13.80
2018-09-24T10:54:33.730Z,13.80
2018-09-24T10:57:08.044Z,13.80
2018-09-24T10:59:41.754Z,13.80
2018-09-24T11:02:15.408Z,13.70
2018-09-24T11:04:50.228Z,13.70
2018-09-24T11:07:24.315Z,13.90
2018-09-24T11:09:59.495Z,14.00
2018-09-24T11:12:34.307Z,14.10
2018-09-24T11:15:08.096Z,14.10
2018-09-24T11:17:42.065Z,14.20
2018-09-24T11:20:15.549Z,14.10
2018-09-24T11:22:49.604Z,13.90
2018-09-24T11:25:23.333Z,13.90
2018-09-24T11:27:58.043Z,14.00
2018-09-24T11:30:33.308Z,14.10
2018-09-24T11:33:07.132Z,14.20
2018-09-24T11:35:41.009Z,14.10
2018-09-24T11:38:15.384Z,14.10
2018-09-24T11:40:49.422Z,14.20
2018-09-24T11:43:26.078Z,14.30
2018-09-24T11:46:01.556Z,14.20
2018-09-24T11:48:35.247Z,14.20
2018-09-24T11:51:08.957Z,14.30
2018-09-24T11:53:42.813Z,14.40
2018-09-24T11:56:16.652Z,14.40
2018-09-24T11:58:55.226Z,14.40
2018-09-24T12:01:29.931Z,14.30
2018-09-24T12:04:04.216Z,14.20
2018-09-24T12:06:38.735Z,14.10
2018-09-24T12:09:14.682Z,14.10
2018-09-24T12:11:48.843Z,14.10
2018-09-24T12:14:23.800Z,14.20
2018-09-24T12:16:58.841Z,14.20
2018-09-24T12:19:33.166Z,14.20
2018-09-24T12:22:06.975Z,14.20
2018-09-24T12:24:40.625Z,14.20
2018-09-24T12:27:15.370Z,14.50
2018-09-24T12:29:49.184Z,14.40
2018-09-24T12:32:23.048Z,14.50
2018-09-24T12:34:56.832Z,14.50
2018-09-24T12:37:30.565Z,14.40
2018-09-24T12:40:04.770Z,14.50
2018-09-24T12:42:38.837Z,14.50
2018-09-24T12:45:13.535Z,14.60
2018-09-24T12:47:48.175Z,14.50
2018-09-24T12:50:21.935Z,14.40
2018-09-24T12:52:56.392Z,14.40
2018-09-24T12:55:30.923Z,14.40
2018-09-24T12:58:06.053Z,14.40
2018-09-24T13:00:39.800Z,14.30
2018-09-24T13:03:14.229Z,14.40
2018-09-24T13:05:48.754Z,14.40
2018-09-24T13:08:23.511Z,14.60
2018-09-24T13:10:57.245Z,14.70
2018-09-24T13:13:31.264Z,14.70
2018-09-24T13:16:05.841Z,14.90
2018-09-24T13:18:40.370Z,14.80
2018-09-24T13:21:13.980Z,15.00
2018-09-24T13:23:48.184Z,14.60
2018-09-24T13:26:22.551Z,14.40
2018-09-24T13:28:57.713Z,14.40
2018-09-24T13:31:32.334Z,14.30
2018-09-24T13:34:06.138Z,14.30
2018-09-24T13:36:39.726Z,14.40
2018-09-24T13:39:14.977Z,14.50
2018-09-24T13:41:48.563Z,14.60
2018-09-24T13:44:23.417Z,14.60
2018-09-24T13:46:57.112Z,14.60
2018-09-24T13:49:30.788Z,14.50
2018-09-24T13:52:04.570Z,14.50
2018-09-24T13:54:38.166Z,14.50
2018-09-24T13:57:11.958Z,14.50
2018-09-24T13:59:49.549Z,14.60
2018-09-24T14:02:23.605Z,14.50
2018-09-24T14:04:57.204Z,14.50
2018-09-24T14:07:31.441Z,14.40
2018-09-24T14:10:05.140Z,14.20
2018-09-24T14:12:39.900Z,14.10
2018-09-24T14:15:14.105Z,14.00
2018-09-24T14:17:48.498Z,13.90
2018-09-24T14:20:23.794Z,14.00
2018-09-24T14:22:57.888Z,14.10
2018-09-24T14:25:32.067Z,14.20
2018-09-24T14:28:05.719Z,14.30
2018-09-24T14:30:39.651Z,14.30
2018-09-24T14:33:13.799Z,14.40
2018-09-24T14:35:47.828Z,14.40
2018-09-24T14:38:21.386Z,14.50
2018-09-24T14:40:55.203Z,14.50
2018-09-24T14:43:29.749Z,14.20
2018-09-24T14:46:04.040Z,14.00
2018-09-24T14:48:39.919Z,13.90
2018-09-24T14:51:14.716Z,13.80
2018-09-24T14:53:48.716Z,13.70
2018-09-24T14:56:23.477Z,13.60
2018-09-24T14:58:57.720Z,13.60
2018-09-24T15:01:32.148Z,13.40
2018-09-24T15:04:06.109Z,13.20
2018-09-24T15:06:39.968Z,13.10
2018-09-24T15:09:15.156Z,13.20
2018-09-24T15:11:48.880Z,13.30
2018-09-24T15:14:22.641Z,13.50
2018-09-24T15:16:57.210Z,13.70
2018-09-24T15:19:31.207Z,13.70
2018-09-24T15:22:06.157Z,13.60
2018-09-24T15:24:40.049Z,13.90
2018-09-24T15:27:13.762Z,14.50
2018-09-24T15:29:47.482Z,15.30
2018-09-24T15:32:33.838Z,15.70
2018-09-24T15:35:07.390Z,15.90
2018-09-24T15:37:42.726Z,16.10
2018-09-24T15:40:16.736Z,16.00
2018-09-24T15:42:52.265Z,15.30
2018-09-24T15:45:27.097Z,14.80
2018-09-24T15:48:01.361Z,14.50
2018-09-24T15:50:35.131Z,14.10
2018-09-24T15:53:09.854Z,13.70
2018-09-24T15:55:43.620Z,13.40
2018-09-24T15:58:17.537Z,13.00
2018-09-24T16:00:51.137Z,12.70
2018-09-24T16:03:25.032Z,12.60
2018-09-24T16:05:58.797Z,12.30
2018-09-24T16:08:33.808Z,12.20
2018-09-24T16:11:08.943Z,11.90
2018-09-24T16:13:42.811Z,11.90
2018-09-24T16:16:17.148Z,11.80
2018-09-24T16:18:50.972Z,11.80
2018-09-24T16:21:31.115Z,11.70
2018-09-24T16:24:04.793Z,11.80
2018-09-24T16:26:38.628Z,11.80
2018-09-24T16:29:12.593Z,11.80
2018-09-24T16:31:47.202Z,11.90
2018-09-24T16:34:21.151Z,12.00
2018-09-24T16:36:55.074Z,12.10
2018-09-24T16:39:28.758Z,11.60
2018-09-24T16:42:02.486Z,10.80
2018-09-24T16:44:36.086Z,10.40
2018-09-24T16:47:09.669Z,10.30
2018-09-24T16:49:43.357Z,10.20
2018-09-24T16:52:17.544Z,10.30
2018-09-24T16:54:51.321Z,10.50
2018-09-24T16:57:25.023Z,10.60
2018-09-24T16:59:58.658Z,10.60
2018-09-24T17:02:32.694Z,10.70
2018-09-24T17:05:06.415Z,10.80
2018-09-24T17:07:40.049Z,10.80
2018-09-24T17:10:14.591Z,10.90
2018-09-24T17:12:48.615Z,10.90
2018-09-24T17:15:22.284Z,10.80
2018-09-24T17:17:56.022Z,10.80
2018-09-24T17:20:29.890Z,10.80
2018-09-24T17:23:04.417Z,10.70
2018-09-24T17:25:38.366Z,10.80
2018-09-24T17:28:12.955Z,10.80
2018-09-24T17:30:46.659Z,10.90
2018-09-24T17:33:20.408Z,10.90
2018-09-24T17:35:54.646Z,10.90
2018-09-24T17:38:28.574Z,10.90
2018-09-24T17:41:02.576Z,10.80
2018-09-24T17:43:36.338Z,10.80
2018-09-24T17:46:10.019Z,10.80
2018-09-24T17:48:44.563Z,10.80
2018-09-24T17:51:18.580Z,10.80
2018-09-24T17:53:52.524Z,10.80
2018-09-24T17:56:26.202Z,10.80
2018-09-24T17:59:00.340Z,10.90
2018-09-24T18:01:34.693Z,10.80
2018-09-24T18:04:09.168Z,10.80
2018-09-24T18:06:42.738Z,10.80
2018-09-24T18:09:16.583Z,10.70
2018-09-24T18:11:50.920Z,10.70
2018-09-24T18:14:24.782Z,10.70
2018-09-24T18:16:59.101Z,10.70
2018-09-24T18:19:33.000Z,10.80
2018-09-24T18:22:06.810Z,10.80
2018-09-24T18:24:40.939Z,10.80
2018-09-24T18:27:14.681Z,10.80
2018-09-24T18:29:48.535Z,10.80
2018-09-24T18:32:23.335Z,10.80
2018-09-24T18:34:58.505Z,10.90
2018-09-24T18:37:33.420Z,10.90
2018-09-24T18:40:08.780Z,10.90
2018-09-24T18:42:43.778Z,10.80
2018-09-24T18:45:17.871Z,10.80
2018-09-24T18:47:52.540Z,10.80
2018-09-24T18:50:27.176Z,10.80
2018-09-24T18:53:01.277Z,10.80
2018-09-24T18:55:36.167Z,11.00
2018-09-24T18:58:10.699Z,11.00
2018-09-24T19:00:44.444Z,10.90
2018-09-24T19:03:18.702Z,10.80
2018-09-24T19:05:52.507Z,10.70
2018-09-24T19:08:26.489Z,10.60
2018-09-24T19:11:00.094Z,10.50
2018-09-24T19:13:33.966Z,10.50
2018-09-24T19:16:07.749Z,10.50
2018-09-24T19:18:41.478Z,10.40
2018-09-24T19:21:15.231Z,10.40
2018-09-24T19:23:49.071Z,10.40
2018-09-24T19:26:22.808Z,10.40
2018-09-24T19:28:56.507Z,10.40
2018-09-24T19:31:30.260Z,10.50
2018-09-24T19:34:04.165Z,10.50
2018-09-24T19:36:38.500Z,10.50
2018-09-24T19:39:13.725Z,10.60
2018-09-24T19:41:48.405Z,10.60
2018-09-24T19:44:23.082Z,10.70
2018-09-24T19:46:56.621Z,10.80
2018-09-24T19:52:23.221Z,10.90
2018-09-24T19:54:57.439Z,10.70
2018-09-24T19:57:31.435Z,10.60
2018-09-24T20:00:05.619Z,10.40
2018-09-24T20:02:39.947Z,10.30
2018-09-24T20:05:14.295Z,10.20
2018-09-24T20:07:48.026Z,10.10
2018-09-24T20:10:21.766Z,10.10
2018-09-24T20:12:55.643Z,10.10
2018-09-24T20:15:29.316Z,10.20
2018-09-24T20:18:03.789Z,10.30
2018-09-24T20:20:38.174Z,10.40
2018-09-24T20:23:12.265Z,10.40
2018-09-24T20:25:46.077Z,10.50
2018-09-24T20:28:19.826Z,10.50
2018-09-24T20:30:53.727Z,10.50
2018-09-24T20:33:27.535Z,10.50
2018-09-24T20:36:01.819Z,10.60
2018-09-24T20:38:35.523Z,10.60
2018-09-24T20:41:09.236Z,10.60
2018-09-24T20:43:43.769Z,10.50
2018-09-24T20:46:18.917Z,10.40
2018-09-24T20:48:52.597Z,10.30
2018-09-24T20:51:26.751Z,10.30
2018-09-24T20:54:01.160Z,10.30
2018-09-24T20:56:34.780Z,10.40
2018-09-24T20:59:08.422Z,10.50
2018-09-24T21:01:42.373Z,10.60
2018-09-24T21:04:16.036Z,10.70
2018-09-24T21:06:50.547Z,10.60
2018-09-24T21:09:24.191Z,10.70
2018-09-24T21:11:58.695Z,10.70
2018-09-24T21:14:33.962Z,10.70
2018-09-24T21:17:08.877Z,10.70
2018-09-24T21:19:43.378Z,10.70
2018-09-24T21:22:17.841Z,10.70
2018-09-24T21:24:52.960Z,10.70
2018-09-24T21:30:26.435Z,10.70
2018-09-24T21:33:06.024Z,10.70
2018-09-24T21:35:40.695Z,10.60
2018-09-24T21:38:14.363Z,10.50
2018-09-24T21:40:48.222Z,10.50
2018-09-24T21:43:22.413Z,10.50
2018-09-24T21:46:03.039Z,10.50
2018-09-24T21:48:36.857Z,10.50
2018-09-24T21:51:10.620Z,10.50
2018-09-24T21:53:45.520Z,10.50
2018-09-24T21:56:19.721Z,10.50
2018-09-24T21:58:53.365Z,10.50
2018-09-24T22:01:28.108Z,10.50
2018-09-24T22:04:02.739Z,10.50
2018-09-24T22:06:36.468Z,10.50
2018-09-24T22:09:13.417Z,10.50
2018-09-24T22:11:49.498Z,10.50
2018-09-24T22:14:23.336Z,10.60
2018-09-24T22:16:57.998Z,10.60
2018-09-24T22:19:32.425Z,10.60
2018-09-24T22:22:06.994Z,10.60
2018-09-24T22:24:40.647Z,10.60
2018-09-24T22:27:14.565Z,10.60
2018-09-24T22:29:49.230Z,10.70
2018-09-24T22:32:23.514Z,10.70
2018-09-24T22:34:59.537Z,10.60
2018-09-24T22:37:35.959Z,10.60
2018-09-24T22:40:10.566Z,10.60
2018-09-24T22:42:48.392Z,10.50
2018-09-24T22:45:23.507Z,10.50
2018-09-24T22:47:58.889Z,10.50
2018-09-24T22:50:34.269Z,10.50
2018-09-24T22:53:08.034Z,10.50
2018-09-24T22:55:41.633Z,10.50
2018-09-24T22:58:16.007Z,10.50
2018-09-24T23:00:49.962Z,10.50
2018-09-24T23:03:23.858Z,10.50
2018-09-24T23:05:59.136Z,10.50
2018-09-24T23:08:33.144Z,10.50
2018-09-24T23:11:07.298Z,10.40
2018-09-24T23:13:40.997Z,10.40
2018-09-24T23:16:15.455Z,10.30
2018-09-24T23:18:49.483Z,10.20
2018-09-24T23:21:24.174Z,10.20
2018-09-24T23:24:00.182Z,10.10
2018-09-24T23:26:37.505Z,10.20
2018-09-24T23:29:11.322Z,10.10
2018-09-24T23:31:45.006Z,10.00
2018-09-24T23:34:19.643Z,10.00
2018-09-24T23:36:53.883Z,10.10
2018-09-24T23:39:27.643Z,10.10
2018-09-24T23:42:01.226Z,10.10
2018-09-24T23:44:35.948Z,10.00
2018-09-24T23:47:09.797Z,10.00
2018-09-24T23:49:46.375Z,10.00
2018-09-24T23:52:22.481Z,10.00
2018-09-24T23:54:56.785Z,10.00
2018-09-24T23:57:30.695Z,10.00
